sensor_id;sensor_type;location;lat;lon;timestamp;P1;durP1;ratioP1;P2;durP2;ratioP2
15669;SDS011;18524;45.190;5.732;2023-11-21T00:04:04;15.27;;;12.80;;
15669;SDS011;18524;45.190;5.732;2023-11-21T00:08:57;14.63;;;13.13;;
15669;SDS011;18524;45.190;5.732;2023-11-21T00:13:47;17.63;;;12.93;;
15669;SDS011;18524;45.190;5.732;2023-11-21T00:18:37;15.13;;;12.63;;
15669;SDS011;18524;45.190;5.732;2023-11-21T00:23:28;14.93;;;12.70;;
15669;SDS011;18524;45.190;5.732;2023-11-21T00:28:19;15.60;;;12.37;;
15669;SDS011;18524;45.190;5.732;2023-11-21T00:33:09;13.30;;;11.57;;
15669;SDS011;18524;45.190;5.732;2023-11-21T00:37:59;14.73;;;11.80;;
15669;SDS011;18524;45.190;5.732;2023-11-21T00:42:50;15.50;;;11.77;;
15669;SDS011;18524;45.190;5.732;2023-11-21T00:47:46;16.93;;;12.10;;
15669;SDS011;18524;45.190;5.732;2023-11-21T00:52:36;13.47;;;11.47;;
15669;SDS011;18524;45.190;5.732;2023-11-21T00:57:26;14.90;;;12.07;;
15669;SDS011;18524;45.190;5.732;2023-11-21T01:02:17;13.77;;;11.17;;
15669;SDS011;18524;45.190;5.732;2023-11-21T01:07:07;12.30;;;10.77;;
15669;SDS011;18524;45.190;5.732;2023-11-21T01:11:58;12.20;;;10.27;;
15669;SDS011;18524;45.190;5.732;2023-11-21T01:16:49;11.33;;;9.80;;
15669;SDS011;18524;45.190;5.732;2023-11-21T01:21:40;12.40;;;9.83;;
15669;SDS011;18524;45.190;5.732;2023-11-21T01:26:30;13.40;;;11.07;;
15669;SDS011;18524;45.190;5.732;2023-11-21T01:31:20;12.60;;;10.60;;
15669;SDS011;18524;45.190;5.732;2023-11-21T01:36:11;14.47;;;11.60;;
15669;SDS011;18524;45.190;5.732;2023-11-21T01:41:01;14.87;;;12.37;;
15669;SDS011;18524;45.190;5.732;2023-11-21T01:45:51;14.70;;;12.60;;
15669;SDS011;18524;45.190;5.732;2023-11-21T01:50:43;14.73;;;12.67;;
15669;SDS011;18524;45.190;5.732;2023-11-21T01:55:34;17.13;;;12.00;;
15669;SDS011;18524;45.190;5.732;2023-11-21T02:00:25;13.97;;;12.30;;
15669;SDS011;18524;45.190;5.732;2023-11-21T02:05:18;15.57;;;12.40;;
15669;SDS011;18524;45.190;5.732;2023-11-21T02:10:09;14.23;;;12.27;;
15669;SDS011;18524;45.190;5.732;2023-11-21T02:14:59;15.13;;;12.17;;
15669;SDS011;18524;45.190;5.732;2023-11-21T02:19:50;15.53;;;12.43;;
15669;SDS011;18524;45.190;5.732;2023-11-21T02:24:41;13.27;;;11.27;;
15669;SDS011;18524;45.190;5.732;2023-11-21T02:29:32;14.60;;;11.17;;
15669;SDS011;18524;45.190;5.732;2023-11-21T02:34:23;18.50;;;12.43;;
15669;SDS011;18524;45.190;5.732;2023-11-21T02:39:15;13.97;;;12.07;;
15669;SDS011;18524;45.190;5.732;2023-11-21T02:44:06;15.70;;;11.87;;
15669;SDS011;18524;45.190;5.732;2023-11-21T02:48:56;12.60;;;10.70;;
15669;SDS011;18524;45.190;5.732;2023-11-21T02:53:48;13.83;;;10.60;;
15669;SDS011;18524;45.190;5.732;2023-11-21T02:58:41;13.40;;;10.87;;
15669;SDS011;18524;45.190;5.732;2023-11-21T03:03:33;11.10;;;9.10;;
15669;SDS011;18524;45.190;5.732;2023-11-21T03:08:23;10.37;;;8.83;;
15669;SDS011;18524;45.190;5.732;2023-11-21T03:13:13;12.80;;;9.60;;
15669;SDS011;18524;45.190;5.732;2023-11-21T03:18:04;13.60;;;9.80;;
15669;SDS011;18524;45.190;5.732;2023-11-21T03:22:54;12.70;;;9.63;;
15669;SDS011;18524;45.190;5.732;2023-11-21T03:27:45;10.23;;;7.70;;
15669;SDS011;18524;45.190;5.732;2023-11-21T03:32:35;9.13;;;7.47;;
15669;SDS011;18524;45.190;5.732;2023-11-21T03:37:26;8.73;;;6.90;;
15669;SDS011;18524;45.190;5.732;2023-11-21T03:42:17;7.67;;;6.50;;
15669;SDS011;18524;45.190;5.732;2023-11-21T03:47:07;8.03;;;6.30;;
15669;SDS011;18524;45.190;5.732;2023-11-21T03:51:58;9.13;;;6.00;;
15669;SDS011;18524;45.190;5.732;2023-11-21T03:56:49;9.90;;;6.27;;
15669;SDS011;18524;45.190;5.732;2023-11-21T04:01:39;8.63;;;5.70;;
15669;SDS011;18524;45.190;5.732;2023-11-21T04:06:29;10.50;;;6.63;;
15669;SDS011;18524;45.190;5.732;2023-11-21T04:11:22;9.17;;;6.70;;
15669;SDS011;18524;45.190;5.732;2023-11-21T04:16:13;8.77;;;6.80;;
15669;SDS011;18524;45.190;5.732;2023-11-21T04:21:04;9.00;;;6.53;;
15669;SDS011;18524;45.190;5.732;2023-11-21T04:25:55;10.07;;;6.70;;
15669;SDS011;18524;45.190;5.732;2023-11-21T04:30:47;9.30;;;6.83;;
15669;SDS011;18524;45.190;5.732;2023-11-21T04:35:37;8.40;;;6.33;;
15669;SDS011;18524;45.190;5.732;2023-11-21T04:40:27;8.77;;;6.30;;
15669;SDS011;18524;45.190;5.732;2023-11-21T04:45:18;8.10;;;6.40;;
15669;SDS011;18524;45.190;5.732;2023-11-21T04:50:08;7.77;;;5.97;;
15669;SDS011;18524;45.190;5.732;2023-11-21T04:54:59;7.23;;;5.77;;
15669;SDS011;18524;45.190;5.732;2023-11-21T04:59:51;10.07;;;7.00;;
15669;SDS011;18524;45.190;5.732;2023-11-21T05:04:41;8.13;;;6.10;;
15669;SDS011;18524;45.190;5.732;2023-11-21T05:09:32;10.53;;;6.30;;
15669;SDS011;18524;45.190;5.732;2023-11-21T05:14:23;6.80;;;5.10;;
15669;SDS011;18524;45.190;5.732;2023-11-21T05:19:13;5.53;;;4.57;;
15669;SDS011;18524;45.190;5.732;2023-11-21T05:24:04;5.13;;;4.10;;
15669;SDS011;18524;45.190;5.732;2023-11-21T05:28:55;4.20;;;3.70;;
15669;SDS011;18524;45.190;5.732;2023-11-21T05:33:46;3.93;;;2.53;;
15669;SDS011;18524;45.190;5.732;2023-11-21T05:38:37;3.87;;;3.33;;
15669;SDS011;18524;45.190;5.732;2023-11-21T05:43:27;5.33;;;3.43;;
15669;SDS011;18524;45.190;5.732;2023-11-21T05:48:19;3.63;;;2.60;;
15669;SDS011;18524;45.190;5.732;2023-11-21T05:53:11;3.03;;;2.70;;
15669;SDS011;18524;45.190;5.732;2023-11-21T05:58:01;4.40;;;2.77;;
15669;SDS011;18524;45.190;5.732;2023-11-21T06:02:52;5.13;;;4.60;;
15669;SDS011;18524;45.190;5.732;2023-11-21T06:07:43;4.87;;;4.30;;
15669;SDS011;18524;45.190;5.732;2023-11-21T06:12:33;5.90;;;5.37;;
15669;SDS011;18524;45.190;5.732;2023-11-21T06:17:25;5.43;;;4.17;;
15669;SDS011;18524;45.190;5.732;2023-11-21T06:22:18;3.47;;;3.13;;
15669;SDS011;18524;45.190;5.732;2023-11-21T06:27:08;3.97;;;3.00;;
15669;SDS011;18524;45.190;5.732;2023-11-21T06:31:58;3.57;;;3.07;;
15669;SDS011;18524;45.190;5.732;2023-11-21T06:36:49;5.53;;;2.90;;
15669;SDS011;18524;45.190;5.732;2023-11-21T06:41:39;4.43;;;2.70;;
15669;SDS011;18524;45.190;5.732;2023-11-21T06:46:29;4.13;;;2.83;;
15669;SDS011;18524;45.190;5.732;2023-11-21T06:51:20;6.10;;;3.50;;
15669;SDS011;18524;45.190;5.732;2023-11-21T06:56:17;3.97;;;3.17;;
15669;SDS011;18524;45.190;5.732;2023-11-21T07:01:07;3.37;;;2.30;;
15669;SDS011;18524;45.190;5.732;2023-11-21T07:05:58;3.63;;;2.60;;
15669;SDS011;18524;45.190;5.732;2023-11-21T07:10:48;2.63;;;2.43;;
15669;SDS011;18524;45.190;5.732;2023-11-21T07:15:39;4.93;;;3.00;;
15669;SDS011;18524;45.190;5.732;2023-11-21T07:20:30;3.50;;;2.57;;
15669;SDS011;18524;45.190;5.732;2023-11-21T07:25:20;4.27;;;3.20;;
15669;SDS011;18524;45.190;5.732;2023-11-21T07:30:12;3.93;;;3.13;;
15669;SDS011;18524;45.190;5.732;2023-11-21T07:35:03;3.47;;;2.73;;
15669;SDS011;18524;45.190;5.732;2023-11-21T07:39:54;3.63;;;2.87;;
15669;SDS011;18524;45.190;5.732;2023-11-21T07:44:46;5.30;;;3.20;;
15669;SDS011;18524;45.190;5.732;2023-11-21T07:49:36;3.67;;;2.90;;
15669;SDS011;18524;45.190;5.732;2023-11-21T07:54:27;5.03;;;3.23;;
15669;SDS011;18524;45.190;5.732;2023-11-21T07:59:17;3.80;;;3.00;;
15669;SDS011;18524;45.190;5.732;2023-11-21T08:04:08;4.90;;;3.37;;
15669;SDS011;18524;45.190;5.732;2023-11-21T08:08:59;5.63;;;3.03;;
15669;SDS011;18524;45.190;5.732;2023-11-21T08:13:49;3.40;;;3.10;;
15669;SDS011;18524;45.190;5.732;2023-11-21T08:18:39;3.77;;;2.80;;
15669;SDS011;18524;45.190;5.732;2023-11-21T08:23:31;7.20;;;2.73;;
15669;SDS011;18524;45.190;5.732;2023-11-21T08:28:21;5.00;;;2.57;;
15669;SDS011;18524;45.190;5.732;2023-11-21T08:33:13;6.03;;;3.43;;
15669;SDS011;18524;45.190;5.732;2023-11-21T08:38:03;5.33;;;4.17;;
15669;SDS011;18524;45.190;5.732;2023-11-21T08:42:54;7.33;;;5.00;;
15669;SDS011;18524;45.190;5.732;2023-11-21T08:47:45;7.30;;;5.23;;
15669;SDS011;18524;45.190;5.732;2023-11-21T08:52:35;8.40;;;5.73;;
15669;SDS011;18524;45.190;5.732;2023-11-21T08:57:26;6.80;;;4.23;;
15669;SDS011;18524;45.190;5.732;2023-11-21T09:02:17;6.53;;;4.53;;
15669;SDS011;18524;45.190;5.732;2023-11-21T09:07:07;7.60;;;4.13;;
15669;SDS011;18524;45.190;5.732;2023-11-21T09:11:57;5.53;;;3.57;;
15669;SDS011;18524;45.190;5.732;2023-11-21T09:16:50;6.63;;;4.90;;
15669;SDS011;18524;45.190;5.732;2023-11-21T09:21:41;9.33;;;6.43;;
15669;SDS011;18524;45.190;5.732;2023-11-21T09:26:31;9.30;;;6.73;;
15669;SDS011;18524;45.190;5.732;2023-11-21T09:31:22;7.27;;;5.30;;
15669;SDS011;18524;45.190;5.732;2023-11-21T09:36:13;7.30;;;5.40;;
15669;SDS011;18524;45.190;5.732;2023-11-21T09:46:30;7.50;;;5.63;;
15669;SDS011;18524;45.190;5.732;2023-11-21T09:51:21;8.47;;;5.60;;
15669;SDS011;18524;45.190;5.732;2023-11-21T09:56:17;9.77;;;6.03;;
15669;SDS011;18524;45.190;5.732;2023-11-21T10:01:13;9.60;;;5.57;;
15669;SDS011;18524;45.190;5.732;2023-11-21T10:06:04;9.83;;;5.70;;
15669;SDS011;18524;45.190;5.732;2023-11-21T10:10:56;10.30;;;5.87;;
15669;SDS011;18524;45.190;5.732;2023-11-21T10:15:49;7.27;;;5.50;;
15669;SDS011;18524;45.190;5.732;2023-11-21T10:20:40;8.93;;;5.90;;
15669;SDS011;18524;45.190;5.732;2023-11-21T10:25:31;7.43;;;5.87;;
15669;SDS011;18524;45.190;5.732;2023-11-21T10:30:22;7.47;;;5.67;;
15669;SDS011;18524;45.190;5.732;2023-11-21T10:35:12;7.87;;;5.93;;
15669;SDS011;18524;45.190;5.732;2023-11-21T10:40:02;10.47;;;6.23;;
15669;SDS011;18524;45.190;5.732;2023-11-21T10:44:55;8.23;;;6.13;;
15669;SDS011;18524;45.190;5.732;2023-11-21T10:49:48;7.90;;;6.03;;
15669;SDS011;18524;45.190;5.732;2023-11-21T10:54:38;8.83;;;5.80;;
15669;SDS011;18524;45.190;5.732;2023-11-21T10:59:29;9.73;;;6.77;;
15669;SDS011;18524;45.190;5.732;2023-11-21T11:04:21;10.00;;;6.67;;
15669;SDS011;18524;45.190;5.732;2023-11-21T11:09:13;8.60;;;6.77;;
15669;SDS011;18524;45.190;5.732;2023-11-21T11:14:03;11.50;;;7.70;;
15669;SDS011;18524;45.190;5.732;2023-11-21T11:18:54;10.47;;;6.67;;
15669;SDS011;18524;45.190;5.732;2023-11-21T11:29:27;9.67;;;6.17;;
15669;SDS011;18524;45.190;5.732;2023-11-21T11:34:31;7.83;;;6.17;;
15669;SDS011;18524;45.190;5.732;2023-11-21T11:49:36;5.27;;;4.07;;
15669;SDS011;18524;45.190;5.732;2023-11-21T11:54:35;3.73;;;2.77;;
15669;SDS011;18524;45.190;5.732;2023-11-21T11:59:26;4.30;;;2.80;;
15669;SDS011;18524;45.190;5.732;2023-11-21T12:09:19;3.53;;;2.37;;
15669;SDS011;18524;45.190;5.732;2023-11-21T12:14:12;4.23;;;2.50;;
15669;SDS011;18524;45.190;5.732;2023-11-21T12:19:03;3.03;;;2.40;;
15669;SDS011;18524;45.190;5.732;2023-11-21T12:23:53;3.63;;;2.23;;
15669;SDS011;18524;45.190;5.732;2023-11-21T12:28:51;3.07;;;2.27;;
15669;SDS011;18524;45.190;5.732;2023-11-21T12:33:43;3.90;;;2.33;;
15669;SDS011;18524;45.190;5.732;2023-11-21T12:38:34;2.10;;;1.63;;
15669;SDS011;18524;45.190;5.732;2023-11-21T12:43:27;1.93;;;1.67;;
15669;SDS011;18524;45.190;5.732;2023-11-21T12:48:19;2.03;;;1.73;;
15669;SDS011;18524;45.190;5.732;2023-11-21T12:53:14;2.43;;;1.60;;
15669;SDS011;18524;45.190;5.732;2023-11-21T12:58:07;2.93;;;2.13;;
15669;SDS011;18524;45.190;5.732;2023-11-21T13:02:59;3.30;;;2.00;;
15669;SDS011;18524;45.190;5.732;2023-11-21T13:07:49;3.17;;;1.70;;
15669;SDS011;18524;45.190;5.732;2023-11-21T13:12:44;3.00;;;1.90;;
15669;SDS011;18524;45.190;5.732;2023-11-21T13:17:38;1.90;;;1.70;;
15669;SDS011;18524;45.190;5.732;2023-11-21T13:22:28;2.33;;;1.40;;
15669;SDS011;18524;45.190;5.732;2023-11-21T13:27:18;2.40;;;1.30;;
15669;SDS011;18524;45.190;5.732;2023-11-21T13:32:09;1.97;;;1.30;;
15669;SDS011;18524;45.190;5.732;2023-11-21T13:37:02;2.40;;;1.17;;
15669;SDS011;18524;45.190;5.732;2023-11-21T13:41:54;1.50;;;1.40;;
15669;SDS011;18524;45.190;5.732;2023-11-21T13:46:46;2.57;;;1.47;;
15669;SDS011;18524;45.190;5.732;2023-11-21T13:51:37;2.23;;;1.17;;
15669;SDS011;18524;45.190;5.732;2023-11-21T13:56:31;2.73;;;1.80;;
15669;SDS011;18524;45.190;5.732;2023-11-21T14:01:23;2.43;;;1.60;;
15669;SDS011;18524;45.190;5.732;2023-11-21T14:06:20;3.13;;;1.60;;
15669;SDS011;18524;45.190;5.732;2023-11-21T14:11:15;1.90;;;1.60;;
15669;SDS011;18524;45.190;5.732;2023-11-21T14:16:08;1.73;;;1.63;;
15669;SDS011;18524;45.190;5.732;2023-11-21T14:21:00;1.70;;;1.33;;
15669;SDS011;18524;45.190;5.732;2023-11-21T14:25:50;2.80;;;1.53;;
15669;SDS011;18524;45.190;5.732;2023-11-21T14:30:41;2.80;;;1.50;;
15669;SDS011;18524;45.190;5.732;2023-11-21T14:35:32;1.43;;;1.30;;
15669;SDS011;18524;45.190;5.732;2023-11-21T14:40:23;1.60;;;1.27;;
15669;SDS011;18524;45.190;5.732;2023-11-21T14:45:14;1.50;;;1.40;;
15669;SDS011;18524;45.190;5.732;2023-11-21T14:50:09;1.30;;;1.20;;
15669;SDS011;18524;45.190;5.732;2023-11-21T14:55:18;1.63;;;1.33;;
15669;SDS011;18524;45.190;5.732;2023-11-21T15:00:35;2.10;;;1.30;;
15669;SDS011;18524;45.190;5.732;2023-11-21T15:05:26;1.50;;;1.00;;
15669;SDS011;18524;45.190;5.732;2023-11-21T15:10:18;1.37;;;1.00;;
15669;SDS011;18524;45.190;5.732;2023-11-21T15:15:11;0.67;;;0.63;;
15669;SDS011;18524;45.190;5.732;2023-11-21T15:20:04;0.87;;;0.50;;
15669;SDS011;18524;45.190;5.732;2023-11-21T15:24:56;0.70;;;0.60;;
15669;SDS011;18524;45.190;5.732;2023-11-21T15:29:47;1.17;;;0.70;;
15669;SDS011;18524;45.190;5.732;2023-11-21T15:34:39;0.80;;;0.80;;
15669;SDS011;18524;45.190;5.732;2023-11-21T15:39:30;1.10;;;1.00;;
15669;SDS011;18524;45.190;5.732;2023-11-21T15:44:20;1.03;;;0.93;;
15669;SDS011;18524;45.190;5.732;2023-11-21T15:49:11;1.27;;;0.93;;
15669;SDS011;18524;45.190;5.732;2023-11-21T15:54:08;1.03;;;0.90;;
15669;SDS011;18524;45.190;5.732;2023-11-21T15:58:58;0.93;;;0.70;;
15669;SDS011;18524;45.190;5.732;2023-11-21T16:03:49;1.30;;;1.10;;
15669;SDS011;18524;45.190;5.732;2023-11-21T16:08:40;1.50;;;1.00;;
15669;SDS011;18524;45.190;5.732;2023-11-21T16:13:32;0.90;;;0.80;;
15669;SDS011;18524;45.190;5.732;2023-11-21T16:18:24;1.30;;;1.07;;
15669;SDS011;18524;45.190;5.732;2023-11-21T16:23:14;1.23;;;1.13;;
15669;SDS011;18524;45.190;5.732;2023-11-21T16:28:06;2.10;;;1.20;;
15669;SDS011;18524;45.190;5.732;2023-11-21T16:32:57;1.17;;;1.00;;
15669;SDS011;18524;45.190;5.732;2023-11-21T16:37:47;1.23;;;1.13;;
15669;SDS011;18524;45.190;5.732;2023-11-21T16:42:38;1.97;;;1.20;;
15669;SDS011;18524;45.190;5.732;2023-11-21T16:47:28;1.30;;;1.20;;
15669;SDS011;18524;45.190;5.732;2023-11-21T16:52:19;2.77;;;1.60;;
15669;SDS011;18524;45.190;5.732;2023-11-21T16:57:12;3.90;;;1.47;;
15669;SDS011;18524;45.190;5.732;2023-11-21T17:02:03;1.73;;;1.20;;
15669;SDS011;18524;45.190;5.732;2023-11-21T17:06:54;0.80;;;0.80;;
15669;SDS011;18524;45.190;5.732;2023-11-21T17:11:47;1.33;;;0.87;;
15669;SDS011;18524;45.190;5.732;2023-11-21T17:16:38;2.20;;;1.30;;
15669;SDS011;18524;45.190;5.732;2023-11-21T17:21:30;5.83;;;4.60;;
15669;SDS011;18524;45.190;5.732;2023-11-21T17:26:21;4.13;;;3.47;;
15669;SDS011;18524;45.190;5.732;2023-11-21T17:31:11;1.70;;;1.60;;
15669;SDS011;18524;45.190;5.732;2023-11-21T17:36:03;2.10;;;1.00;;
15669;SDS011;18524;45.190;5.732;2023-11-21T17:40:54;1.60;;;1.43;;
15669;SDS011;18524;45.190;5.732;2023-11-21T17:45:44;7.60;;;6.90;;
15669;SDS011;18524;45.190;5.732;2023-11-21T17:50:37;2.40;;;2.20;;
15669;SDS011;18524;45.190;5.732;2023-11-21T17:55:27;1.93;;;1.70;;
15669;SDS011;18524;45.190;5.732;2023-11-21T18:00:18;1.60;;;1.47;;
15669;SDS011;18524;45.190;5.732;2023-11-21T18:05:08;2.67;;;1.40;;
15669;SDS011;18524;45.190;5.732;2023-11-21T18:10:01;23.70;;;13.13;;
15669;SDS011;18524;45.190;5.732;2023-11-21T18:14:51;2.40;;;2.20;;
15669;SDS011;18524;45.190;5.732;2023-11-21T18:19:42;2.20;;;2.00;;
15669;SDS011;18524;45.190;5.732;2023-11-21T18:24:33;5.40;;;4.90;;
15669;SDS011;18524;45.190;5.732;2023-11-21T18:29:24;3.20;;;2.83;;
15669;SDS011;18524;45.190;5.732;2023-11-21T18:34:14;1.90;;;1.50;;
15669;SDS011;18524;45.190;5.732;2023-11-21T18:39:05;3.30;;;1.60;;
15669;SDS011;18524;45.190;5.732;2023-11-21T18:43:58;2.77;;;2.00;;
15669;SDS011;18524;45.190;5.732;2023-11-21T18:48:48;2.67;;;1.80;;
15669;SDS011;18524;45.190;5.732;2023-11-21T18:53:39;2.00;;;1.80;;
15669;SDS011;18524;45.190;5.732;2023-11-21T18:58:30;3.27;;;2.10;;
15669;SDS011;18524;45.190;5.732;2023-11-21T19:03:20;2.40;;;1.90;;
15669;SDS011;18524;45.190;5.732;2023-11-21T19:08:11;1.90;;;1.77;;
15669;SDS011;18524;45.190;5.732;2023-11-21T19:13:01;3.47;;;1.93;;
15669;SDS011;18524;45.190;5.732;2023-11-21T19:17:53;4.03;;;1.70;;
15669;SDS011;18524;45.190;5.732;2023-11-21T19:22:43;3.80;;;1.80;;
15669;SDS011;18524;45.190;5.732;2023-11-21T19:27:34;2.37;;;2.00;;
15669;SDS011;18524;45.190;5.732;2023-11-21T19:32:27;2.40;;;1.87;;
15669;SDS011;18524;45.190;5.732;2023-11-21T19:37:19;4.27;;;3.70;;
15669;SDS011;18524;45.190;5.732;2023-11-21T19:42:09;4.67;;;3.53;;
15669;SDS011;18524;45.190;5.732;2023-11-21T19:47:00;6.07;;;3.63;;
15669;SDS011;18524;45.190;5.732;2023-11-21T19:51:50;2.50;;;1.97;;
15669;SDS011;18524;45.190;5.732;2023-11-21T19:56:40;4.10;;;3.50;;
15669;SDS011;18524;45.190;5.732;2023-11-21T20:01:32;2.10;;;1.63;;
15669;SDS011;18524;45.190;5.732;2023-11-21T20:06:22;1.40;;;1.27;;
15669;SDS011;18524;45.190;5.732;2023-11-21T20:11:13;1.60;;;1.50;;
15669;SDS011;18524;45.190;5.732;2023-11-21T20:16:11;1.80;;;1.50;;
15669;SDS011;18524;45.190;5.732;2023-11-21T20:21:01;2.67;;;1.77;;
15669;SDS011;18524;45.190;5.732;2023-11-21T20:25:51;1.73;;;1.60;;
15669;SDS011;18524;45.190;5.732;2023-11-21T20:30:47;2.13;;;1.57;;
15669;SDS011;18524;45.190;5.732;2023-11-21T20:35:39;1.67;;;1.53;;
15669;SDS011;18524;45.190;5.732;2023-11-21T20:40:30;1.57;;;1.43;;
15669;SDS011;18524;45.190;5.732;2023-11-21T20:45:20;1.50;;;1.10;;
15669;SDS011;18524;45.190;5.732;2023-11-21T20:50:13;1.50;;;1.17;;
15669;SDS011;18524;45.190;5.732;2023-11-21T20:55:04;1.57;;;1.20;;
15669;SDS011;18524;45.190;5.732;2023-11-21T20:59:55;2.57;;;1.90;;
15669;SDS011;18524;45.190;5.732;2023-11-21T21:04:46;8.90;;;6.00;;
15669;SDS011;18524;45.190;5.732;2023-11-21T21:09:36;2.10;;;1.67;;
15669;SDS011;18524;45.190;5.732;2023-11-21T21:14:28;2.03;;;1.63;;
15669;SDS011;18524;45.190;5.732;2023-11-21T21:19:19;2.37;;;2.17;;
15669;SDS011;18524;45.190;5.732;2023-11-21T21:24:09;3.27;;;2.00;;
15669;SDS011;18524;45.190;5.732;2023-11-21T21:29:00;1.90;;;1.70;;
15669;SDS011;18524;45.190;5.732;2023-11-21T21:33:51;1.93;;;1.73;;
15669;SDS011;18524;45.190;5.732;2023-11-21T21:38:41;1.63;;;1.50;;
15669;SDS011;18524;45.190;5.732;2023-11-21T21:43:32;1.67;;;1.30;;
15669;SDS011;18524;45.190;5.732;2023-11-21T21:48:23;2.90;;;1.80;;
15669;SDS011;18524;45.190;5.732;2023-11-21T21:53:14;2.70;;;1.30;;
15669;SDS011;18524;45.190;5.732;2023-11-21T21:58:04;1.53;;;1.43;;
15669;SDS011;18524;45.190;5.732;2023-11-21T22:02:56;1.50;;;1.40;;
15669;SDS011;18524;45.190;5.732;2023-11-21T22:07:47;2.17;;;1.43;;
15669;SDS011;18524;45.190;5.732;2023-11-21T22:12:37;2.13;;;1.40;;
15669;SDS011;18524;45.190;5.732;2023-11-21T22:17:28;1.50;;;1.40;;
15669;SDS011;18524;45.190;5.732;2023-11-21T22:22:18;1.60;;;1.37;;
15669;SDS011;18524;45.190;5.732;2023-11-21T22:27:09;1.77;;;1.53;;
15669;SDS011;18524;45.190;5.732;2023-11-21T22:31:59;1.90;;;1.43;;
15669;SDS011;18524;45.190;5.732;2023-11-21T22:36:49;1.87;;;1.70;;
15669;SDS011;18524;45.190;5.732;2023-11-21T22:41:40;1.90;;;1.60;;
15669;SDS011;18524;45.190;5.732;2023-11-21T22:46:31;1.63;;;1.27;;
15669;SDS011;18524;45.190;5.732;2023-11-21T22:51:22;1.67;;;1.50;;
15669;SDS011;18524;45.190;5.732;2023-11-21T22:56:12;1.87;;;1.73;;
15669;SDS011;18524;45.190;5.732;2023-11-21T23:01:03;2.63;;;1.67;;
15669;SDS011;18524;45.190;5.732;2023-11-21T23:05:55;1.63;;;1.50;;
15669;SDS011;18524;45.190;5.732;2023-11-21T23:10:45;1.90;;;1.80;;
15669;SDS011;18524;45.190;5.732;2023-11-21T23:15:36;2.30;;;2.10;;
15669;SDS011;18524;45.190;5.732;2023-11-21T23:20:27;1.73;;;1.63;;
15669;SDS011;18524;45.190;5.732;2023-11-21T23:25:17;1.60;;;1.50;;
15669;SDS011;18524;45.190;5.732;2023-11-21T23:30:09;1.90;;;1.80;;
15669;SDS011;18524;45.190;5.732;2023-11-21T23:35:00;1.83;;;1.73;;
15669;SDS011;18524;45.190;5.732;2023-11-21T23:39:51;2.00;;;1.80;;
15669;SDS011;18524;45.190;5.732;2023-11-21T23:44:41;2.00;;;1.90;;
15669;SDS011;18524;45.190;5.732;2023-11-21T23:49:31;1.90;;;1.70;;
15669;SDS011;18524;45.190;5.732;2023-11-21T23:54:25;1.80;;;1.70;;
15669;SDS011;18524;45.190;5.732;2023-11-21T23:59:15;2.40;;;2.20;;
